Lawson Army Air Field (Fort Benning)
KLSF : now visible

Airfield :











YOU CAN JOIN US ON...

 
LOGIN :

Register | Disclaimer

   EN    FR    IT 

 









Legend :    VFR   Marginal VFR   IFR   Intensive IFR   Very Intensive IFR
Visi :
Ceiling :
>= 8 km
>= 3000ft
5 to 8 km
1000 to 3000 ft
1500m to 5 km
500 to 1000 ft
800 to 1500m
200 to 500 ft
< 800m
< 200 ft
Symbols :   Thunderstorms  Fog  Heavy snow  Heavy precipitations  Wind > 20 kt






- Airport Elevation : 232 ft


KLSF - Lawson Army Air Field (Fort Benning)

CURRENT METAR :
  • 042156Z AUTO 27005KT 10SM CLR 34/18 A2990 RMK AO2 SLP128 T03430183

EXPIRED METARs :
  • 042056Z AUTO 20005KT 10SM CLR 34/18 A2991 RMK AO2 SLP131 T03440184 57017
  • 041956Z AUTO 24003KT 10SM FEW070 34/20 A2993 RMK AO2 SLP138 T03380198

TAF TAF KLSF
Valid from the 04 at 17:00 until the 05 at 23:00 UTC


041700Z 0417/0523 25005KT 9999 FEW040 SCT070 QNH2987INS
BECMG 0505/0506 VRB03KT 8000 BR SCT050 QNH2991INS
TEMPO 0506/0510 2400 BR
BECMG 0510/0511 11006KT 9999 NSW SCT050 QNH2988INS TX35/0420Z TN23/0511Z
KZTL FIR / North America



MET'MAP, your aeronautical weather chart ! - Copyright ORBIFLY December 2007 - Disclaimer

ORBIFLY MET'MAP TEAM :

Programming & Development : Alexandra Zaïnal
Concept & original design : Baudouin d'Aumeries
Assistance for programming : Marc-Olivier Méhu
Technical & hardware support : Manuel Goepfert

Contact : metmap@orbifly.com




SOURCES & CREDITS :

   NOAA       Earth
Advisory